Latest METARs, TAFs and NOTAMs for MYNN


---------------------------------------------------------------------------
	(OBSERVATIONS)
MYNN 072000Z 27004KT 9999 FEW018 BKN220 28/22 A3002=
MYNN 071900Z 24006KT 9999 SCT018TCU BKN220 27/23 A3002 RMK TCU
    OVHD=
MYNN 071800Z 00000KT 9999 FEW018CB BKN220 29/23 A3002 RMK CB/NW=
---------------------------------------------------------------------------
	(TERMINAL AREA FORECAST)
MYNN 071600Z 0718/0818 VRB02KT 9000 SHRA FEW015CB SCT018
    BKN040
    BECMG 0803/0805 VRB02KT 9999 FEW020 SCT050 BKN220=
---------------------------------------------------------------------------
	(NOTAMS)


MYNN A0068/13 VOR Y RWY 14 FEEDER RTE FM MAJUR TO MUNIE NOT AVBL
    VOR Y RWY 14 FEEDER RTE FM MELON TO MUNIE NOT AVBL. SFC -
    UNL, 19 APR 19:55 2013 UNTIL PERM. CREATED: 19 APR 19:51
    2013

MYNN A0069/13 VOR Y RWY 09 FEEDER RTE FM MAJUR TO MUSSE NOT AVBL
    REMOVE PROCEDURE NOTE 'RADAR REQUIRED' FM APP CHART. SFC
    - UNL, 19 APR 19:55 2013 UNTIL PERM. CREATED: 19 APR 19:52
    2013

MYNN A0070/13 VOR Y RWY 32 FEEDER RTE FM PRUNE TO WELKS NOT AVBL
    REMOVE PROCEDURE NOTE 'RADAR REQUIRED' FM APP CHART. SFC
    - UNL, 19 APR 19:55 2013 UNTIL PERM. CREATED: 19 APR 19:54
    2013

MYNN A0108/15 INFORMATION LISTED IN AIC 3/2015 WITH THE EXCEPTION
    OF MYNN AND MYGF RNAV APCH PROC IN THE BAHAMAS ARE NOT AUTH
    DUE TO AIRSPACE CLASSIFICATION RESTRICTIONS. 01 JUN 18:00
    2015 UNTIL PERM. CREATED: 01 JUN 16:52 2015

MYNN A0286/16 ATS WILL ONLY ACCEPT NON-CLOSURE PLN'S TO MYSM
    MYCA MYCX MYCH MYCB MYAP MYCI MYCP MYMM MYRP MYLD MYLS DUE
    TO LACK OF COM. 30 SEP 16:13 2016 UNTIL 30 DEC 23:59 2016.
    CREATED: 30 SEP 16:13 2016

MYNN A0316/16 WIE THE DEPARTMENT OF CIVIL AVIATION BANS ALL SAMSUNG
    GALAXY NOTE 7 PHONES FROM ACFT TRAVELLING IN THE BAHAMAS.
    DEVICES MAY NOT BE TRANSPORTED BY PASSENGERS OR CREW ON THEIR
    PERSON, IN CARRY-ON BAGGAGE, OR IN CHECKED BAGGAGE ON FLIGHTS
    TO, FROM, OR WITHIN THE COMMONWEALTH OF THE BAHAMAS AND CANNOT
    BE SHIPPED AS AIR CARGO. 20 OCT 15:30 2016 UNTIL PERM. CREATED:
    20 OCT 15:12 2016

MYNN A0356/16 UFN DEPARTURES FROM MYNN A MINIMUM OF FORTY FIVE
    (45) MINUTES NOTICE PRIOR TO THE ESTIMATED TIME OF DEPARTURE
    (ETD) IS REQUIRED FOR ALL DOMESTIC FLIGHT PANS, IFR OR VFR.
    A MINIMUM OF NINETY (90) MINUTES NOTICE PRIOR TO THE ESTIMATED
    TIME OF DEPARTURE (ETD) IS REQUIRED FOR AL INTENTIONAL FLIGHT
    PLANS, IFR OR VFR, WHETHER OR NOT BOUND FOR THE CONTINENTAL
    UNITED STATES ROUND-TRIP FLIGHT PLANS SHOULD BE FILED SIMULTANEOUSLY
    IT IS RECOMMENDED THAT AIRCRAFT (CHARTER OR PRIVATE) DEPARTING
    BETWEEN 6:00AM LOCAL TIME AND 7:AM LOCAL TIME, FILE THE FLIGHT
    PLANS THE EVENING PRIOR TO AVOID DELAY) CORRECTION. 24 NOV
    17:00 2016 UNTIL 10 JAN 23:59 2017. CREATED: 24 NOV 16:42
    2016

MYNN A0357/16 UFN FOR ARRIVALS INTO MYNN PILOTS WHO DO NOT HAVE
    A FLIGHT PLAN ON FILE ARE TO REMAIN OUTSIDE OF TWENTY-FIVE
    (25) NAUTICAL MILES CONTACT NASSAU RADIO FREQ 128.0, FILE
    THE FLIGHT PLAN AND THEN STAND BY ON THE FREQUENCY UNTIL
    INSTRUCTED TO CONTACT NASSAU APPROACH CONTROL. AIRCRAFT VIOLATING
    THIS PROCEDURE WILL BE INSTRUCTED TO RETURN TO 25NM UNTIL
    THE SERVICE CAN BE PROVIDED PILOTS WHO WILL BE OPERATING
    THROUGH THE NASSAU CTA/FIR MUST HAVE A FLIGHT PLAN ON FILE
    PRIOR TO 25NM) CORRECTION CNS123W SEQUENCE CHECK FOR MYNNYNYX
    A -- EXPECTED A0359/16 -- RECEIVED A0357/16 CNN038W DUPLICATE
    NOTAM TRANSACTION ROLLED BACK, RETCODE = 14. 24 NOV 17:00
    2016 UNTIL 10 JAN 23:59 2017. CREATED: 24 NOV 16:42 2016

MYNN A0358/16 UFN FLOW CONTROL MEASURES WILL BE IMPLEMENTED AS
    NECESSARY TO AVOID AIRSPACE CONGESTION AND TO MAINTAIN A
    SAFE OPERATIONAL ENVIRONMENT. APPROPRIATE NOTICES WILL BE
    PLACED ON THE AUTOMATIC TERMINAL INFORMATION SERVICE (ATIS)
    AND THE NASSAU AIRPORT DEVELOPMENT COMPANY (NAD) WILL BE
    NOTIFIED) CORRECTION CNS123W SEQUENCE CHECK FOR MYNNYNYX
    A -- EXPECTED A0359/16 -- RECEIVED A0358/16 CNN038W DUPLICATE
    NOTAM TRANSACTION ROLLED BACK, RETCODE = 14. 24 NOV 17:00
    2016 UNTIL 10 JAN 23:59 2017. CREATED: 24 NOV 16:42 2016

MYNN A0368/16 RWY 09/27 CLSD FOR ELECTRICAL MAINT NEG RWY LGTS.
    DAILY 2300Z - 1000Z, 02 DEC 23:00 2016 UNTIL 15 DEC 23:00
    2016. CREATED: 02 DEC 21:52 2016

---------------------------------------------------------------------------